createdAt,value
2023-04-19T00:00:55.375Z,1026.93
2023-04-19T00:01:55.592Z,1026.92
2023-04-19T00:02:55.875Z,1026.84
2023-04-19T00:03:56.115Z,1026.86
2023-04-19T00:04:56.125Z,1026.86
2023-04-19T00:05:56.247Z,1026.84
2023-04-19T00:06:56.429Z,1026.86
2023-04-19T00:07:56.658Z,1026.86
2023-04-19T00:08:56.786Z,1026.85
2023-04-19T00:09:56.956Z,1026.80
2023-04-19T00:10:57.140Z,1026.76
2023-04-19T00:11:57.317Z,1026.80
2023-04-19T00:12:57.524Z,1026.72
2023-04-19T00:13:57.668Z,1026.76
2023-04-19T00:14:57.852Z,1026.79
2023-04-19T00:15:58.030Z,1026.73
2023-04-19T00:16:58.227Z,1026.77
2023-04-19T00:17:58.465Z,1026.71
2023-04-19T00:18:58.567Z,1026.73
2023-04-19T00:19:58.748Z,1026.75
2023-04-19T00:20:58.925Z,1026.72
2023-04-19T00:21:59.097Z,1026.75
2023-04-19T00:22:59.325Z,1026.74
2023-04-19T00:23:59.464Z,1026.69
2023-04-19T00:24:59.634Z,1026.73
2023-04-19T00:25:59.830Z,1026.69
2023-04-19T00:26:59.976Z,1026.65
2023-04-19T00:28:00.160Z,1026.63
2023-04-19T00:29:00.327Z,1026.63
2023-04-19T00:30:00.519Z,1026.66
2023-04-19T00:31:00.734Z,1026.64
2023-04-19T00:32:00.867Z,1026.63
2023-04-19T00:33:01.109Z,1026.65
2023-04-19T00:34:01.211Z,1026.67
2023-04-19T00:35:01.388Z,1026.68
2023-04-19T00:36:01.579Z,1026.66
2023-04-19T00:37:01.730Z,1026.69
2023-04-19T00:38:01.924Z,1026.65
2023-04-19T00:39:02.065Z,1026.63
2023-04-19T00:40:02.265Z,1026.64
2023-04-19T00:41:02.440Z,1026.61
2023-04-19T00:42:02.583Z,1026.64
2023-04-19T00:43:02.753Z,1026.58
2023-04-19T00:44:02.945Z,1026.60
2023-04-19T00:45:03.144Z,1026.58
2023-04-19T00:46:03.397Z,1026.56
2023-04-19T00:47:03.485Z,1026.56
2023-04-19T00:48:03.702Z,1026.56
2023-04-19T00:49:03.827Z,1026.58
2023-04-19T00:50:04.006Z,1026.54
2023-04-19T00:51:04.212Z,1026.51
2023-04-19T00:52:04.366Z,1026.54
2023-04-19T00:53:04.552Z,1026.52
2023-04-19T00:54:04.714Z,1026.57
2023-04-19T00:55:04.896Z,1026.52
2023-04-19T00:56:05.105Z,1026.54
2023-04-19T00:57:05.241Z,1026.54
2023-04-19T00:58:05.418Z,1026.51
2023-04-19T00:59:05.591Z,1026.55
2023-04-19T01:00:05.786Z,1026.57
2023-04-19T01:01:05.966Z,1026.53
2023-04-19T01:02:06.113Z,1026.56
2023-04-19T01:03:06.366Z,1026.52
2023-04-19T01:04:06.572Z,1026.59
2023-04-19T01:05:06.619Z,1026.53
2023-04-19T01:06:06.858Z,1026.56
2023-04-19T01:07:06.990Z,1026.53
2023-04-19T01:08:07.146Z,1026.54
2023-04-19T01:09:07.346Z,1026.57
2023-04-19T01:10:07.527Z,1026.52
2023-04-19T01:11:07.682Z,1026.58
2023-04-19T01:12:07.862Z,1026.54
2023-04-19T01:13:08.038Z,1026.52
2023-04-19T01:14:08.219Z,1026.56
2023-04-19T01:15:08.434Z,1026.52
2023-04-19T01:16:08.599Z,1026.54
2023-04-19T01:17:08.744Z,1026.52
2023-04-19T01:18:08.897Z,1026.54
2023-04-19T01:19:09.084Z,1026.55
2023-04-19T01:20:09.282Z,1026.58
2023-04-19T01:21:09.432Z,1026.53
2023-04-19T01:22:09.602Z,1026.60
2023-04-19T01:23:09.776Z,1026.57
2023-04-19T01:24:09.968Z,1026.51
2023-04-19T01:25:10.176Z,1026.56
2023-04-19T01:26:10.311Z,1026.55
2023-04-19T01:27:10.499Z,1026.55
2023-04-19T01:28:10.685Z,1026.55
2023-04-19T01:29:10.875Z,1026.57
2023-04-19T01:30:11.057Z,1026.55
2023-04-19T01:31:11.256Z,1026.58
2023-04-19T01:32:11.396Z,1026.53
2023-04-19T01:33:11.576Z,1026.53
2023-04-19T01:34:11.764Z,1026.52
2023-04-19T01:35:11.970Z,1026.56
2023-04-19T01:36:12.094Z,1026.50
2023-04-19T01:37:12.284Z,1026.53
2023-04-19T01:38:12.439Z,1026.49
2023-04-19T01:39:12.615Z,1026.54
2023-04-19T01:40:12.828Z,1026.49
2023-04-19T01:41:12.974Z,1026.49
2023-04-19T01:42:13.159Z,1026.49
2023-04-19T01:43:13.329Z,1026.48
2023-04-19T01:44:13.730Z,1026.54
2023-04-19T01:45:13.686Z,1026.48
2023-04-19T01:46:13.873Z,1026.51
2023-04-19T01:47:14.063Z,1026.51
2023-04-19T01:48:14.182Z,1026.47
2023-04-19T01:49:14.356Z,1026.45
2023-04-19T01:50:14.550Z,1026.44
2023-04-19T01:51:14.707Z,1026.47
2023-04-19T01:52:14.895Z,1026.45
2023-04-19T01:53:15.062Z,1026.44
2023-04-19T01:54:15.360Z,1026.37
2023-04-19T01:55:15.426Z,1026.47
2023-04-19T01:56:15.588Z,1026.45
2023-04-19T01:57:15.763Z,1026.42
2023-04-19T01:58:15.916Z,1026.39
2023-04-19T01:59:16.101Z,1026.40
2023-04-19T02:00:16.274Z,1026.41
2023-04-19T02:01:16.475Z,1026.40
2023-04-19T02:02:16.701Z,1026.40
2023-04-19T02:03:17.005Z,1026.39
2023-04-19T02:04:17.091Z,1026.40
2023-04-19T02:05:17.205Z,1026.41
2023-04-19T02:06:17.337Z,1026.37
2023-04-19T02:07:17.514Z,1026.36
2023-04-19T02:08:17.712Z,1026.32
2023-04-19T02:09:17.893Z,1026.36
2023-04-19T02:10:18.077Z,1026.35
2023-04-19T02:11:18.321Z,1026.36
2023-04-19T02:12:18.407Z,1026.34
2023-04-19T02:13:18.585Z,1026.33
2023-04-19T02:14:18.764Z,1026.33
2023-04-19T02:15:18.991Z,1026.28
2023-04-19T02:16:19.135Z,1026.35
2023-04-19T02:17:19.326Z,1026.28
2023-04-19T02:18:19.481Z,1026.33
2023-04-19T02:19:19.670Z,1026.27
2023-04-19T02:20:19.869Z,1026.33
2023-04-19T02:21:20.011Z,1026.36
2023-04-19T02:22:20.208Z,1026.30
2023-04-19T02:23:20.381Z,1026.31
2023-04-19T02:24:20.562Z,1026.35
2023-04-19T02:25:20.810Z,1026.37
2023-04-19T02:26:20.928Z,1026.36
2023-04-19T02:27:21.112Z,1026.37
2023-04-19T02:28:21.301Z,1026.36
2023-04-19T02:29:21.475Z,1026.30
2023-04-19T02:30:21.651Z,1026.35
2023-04-19T02:31:21.923Z,1026.38
2023-04-19T02:32:22.036Z,1026.38
2023-04-19T02:33:22.209Z,1026.32
2023-04-19T02:34:22.366Z,1026.32
2023-04-19T02:35:22.586Z,1026.34
2023-04-19T02:36:22.738Z,1026.34
2023-04-19T02:37:22.884Z,1026.34
2023-04-19T02:38:23.058Z,1026.33
2023-04-19T02:39:23.272Z,1026.31
2023-04-19T02:40:23.402Z,1026.29
2023-04-19T02:41:23.601Z,1026.27
2023-04-19T02:42:23.748Z,1026.29
2023-04-19T02:43:23.937Z,1026.27
2023-04-19T02:44:24.122Z,1026.32
2023-04-19T02:45:24.274Z,1026.28
2023-04-19T02:46:24.473Z,1026.26
2023-04-19T02:47:24.751Z,1026.29
2023-04-19T02:48:24.795Z,1026.29
2023-04-19T02:49:24.960Z,1026.28
2023-04-19T02:50:25.103Z,1026.27
2023-04-19T02:51:25.289Z,1026.26
2023-04-19T02:52:25.467Z,1026.24
2023-04-19T02:53:25.647Z,1026.20
2023-04-19T02:54:25.863Z,1026.23
2023-04-19T02:55:26.016Z,1026.18
2023-04-19T02:56:26.182Z,1026.18
2023-04-19T02:57:26.342Z,1026.16
2023-04-19T02:58:26.546Z,1026.21
2023-04-19T02:59:26.681Z,1026.19
2023-04-19T03:00:26.855Z,1026.14
2023-04-19T03:01:27.068Z,1026.14
2023-04-19T03:02:27.334Z,1026.16
2023-04-19T03:03:27.441Z,1026.11
2023-04-19T03:04:27.647Z,1026.15
2023-04-19T03:05:27.760Z,1026.16
2023-04-19T03:06:27.900Z,1026.13
2023-04-19T03:07:28.079Z,1026.12
2023-04-19T03:08:28.297Z,1026.12
2023-04-19T03:09:28.420Z,1026.13
2023-04-19T03:10:28.582Z,1026.10
2023-04-19T03:11:28.765Z,1026.13
2023-04-19T03:12:28.892Z,1026.14
2023-04-19T03:13:29.072Z,1026.14
2023-04-19T03:14:29.258Z,1026.14
2023-04-19T03:15:29.441Z,1026.14
2023-04-19T03:16:29.694Z,1026.15
2023-04-19T03:17:29.835Z,1026.10
2023-04-19T03:18:29.944Z,1026.09
2023-04-19T03:19:30.141Z,1026.05
2023-04-19T03:20:30.300Z,1026.05
2023-04-19T03:21:30.497Z,1026.01
2023-04-19T03:22:30.649Z,1026.06
2023-04-19T03:23:30.831Z,1025.98
2023-04-19T03:24:31.003Z,1026.03
2023-04-19T03:25:31.157Z,1025.99
2023-04-19T03:26:31.354Z,1026.00
2023-04-19T03:27:31.542Z,1025.94
2023-04-19T03:28:31.685Z,1025.93
2023-04-19T03:29:31.897Z,1025.95
2023-04-19T03:30:32.012Z,1025.94
2023-04-19T03:31:32.262Z,1025.97
2023-04-19T03:32:32.382Z,1025.96
2023-04-19T03:33:32.565Z,1025.88
2023-04-19T03:34:32.735Z,1025.86
2023-04-19T03:35:32.904Z,1025.93
2023-04-19T03:36:33.072Z,1025.88
2023-04-19T03:37:33.270Z,1025.90
2023-04-19T03:38:33.404Z,1025.86
2023-04-19T03:39:33.579Z,1025.87
2023-04-19T03:40:33.786Z,1025.87
2023-04-19T03:41:33.948Z,1025.84
2023-04-19T03:42:34.154Z,1025.81
2023-04-19T03:43:34.285Z,1025.79
2023-04-19T03:44:34.473Z,1025.82
2023-04-19T03:45:34.642Z,1025.83
2023-04-19T03:46:34.887Z,1025.83
2023-04-19T03:47:35.046Z,1025.80
2023-04-19T03:48:35.176Z,1025.80
2023-04-19T03:49:35.346Z,1025.82
2023-04-19T03:50:35.547Z,1025.82
2023-04-19T03:51:35.711Z,1025.80
2023-04-19T03:52:35.877Z,1025.82
2023-04-19T03:53:36.040Z,1025.79
2023-04-19T03:54:36.193Z,1025.77
2023-04-19T03:55:36.356Z,1025.74
2023-04-19T03:56:36.542Z,1025.76
2023-04-19T03:57:36.713Z,1025.77
2023-04-19T03:58:36.861Z,1025.76
2023-04-19T03:59:37.052Z,1025.74
2023-04-19T04:00:37.197Z,1025.75
2023-04-19T04:01:37.409Z,1025.75
2023-04-19T04:02:37.851Z,1025.75
2023-04-19T04:03:38.116Z,1025.75
2023-04-19T04:04:38.035Z,1025.73
2023-04-19T04:05:38.225Z,1025.75
2023-04-19T04:06:38.235Z,1025.74
2023-04-19T04:07:38.428Z,1025.74
2023-04-19T04:08:38.579Z,1025.74
2023-04-19T04:09:38.746Z,1025.74
2023-04-19T04:10:38.940Z,1025.76
2023-04-19T04:11:39.091Z,1025.75
2023-04-19T04:12:39.272Z,1025.75
2023-04-19T04:13:39.465Z,1025.76
2023-04-19T04:14:39.645Z,1025.78
2023-04-19T04:15:39.814Z,1025.79
2023-04-19T04:16:39.988Z,1025.79
2023-04-19T04:17:40.149Z,1025.77
2023-04-19T04:18:40.332Z,1025.79
2023-04-19T04:19:40.471Z,1025.80
2023-04-19T04:20:40.613Z,1025.79
2023-04-19T04:21:40.804Z,1025.78
2023-04-19T04:22:40.990Z,1025.80
2023-04-19T04:23:41.177Z,1025.80
2023-04-19T04:24:41.346Z,1025.79
2023-04-19T04:25:41.504Z,1025.84
2023-04-19T04:26:41.648Z,1025.84
2023-04-19T04:27:41.817Z,1025.83
2023-04-19T04:28:42.006Z,1025.78
2023-04-19T04:29:42.156Z,1025.80
2023-04-19T04:30:42.315Z,1025.83
2023-04-19T04:31:42.570Z,1025.80
2023-04-19T04:32:42.694Z,1025.81
2023-04-19T04:33:42.876Z,1025.85
2023-04-19T04:34:43.152Z,1025.82
2023-04-19T04:35:43.223Z,1025.83
2023-04-19T04:36:43.379Z,1025.79
2023-04-19T04:37:43.585Z,1025.81
2023-04-19T04:38:43.742Z,1025.79
2023-04-19T04:39:43.915Z,1025.78
2023-04-19T04:40:44.056Z,1025.78
2023-04-19T04:41:44.239Z,1025.79
2023-04-19T04:42:44.410Z,1025.76
2023-04-19T04:43:44.612Z,1025.75
2023-04-19T04:44:44.746Z,1025.74
2023-04-19T04:45:44.992Z,1025.68
2023-04-19T04:46:45.103Z,1025.69
2023-04-19T04:47:45.276Z,1025.69
2023-04-19T04:48:45.454Z,1025.69
2023-04-19T04:49:45.603Z,1025.71
2023-04-19T04:50:45.768Z,1025.65
2023-04-19T04:51:45.928Z,1025.65
2023-04-19T04:52:46.109Z,1025.64
2023-04-19T04:53:46.270Z,1025.70
2023-04-19T04:54:46.414Z,1025.67
2023-04-19T04:55:46.576Z,1025.67
2023-04-19T04:56:46.770Z,1025.66
2023-04-19T04:57:46.941Z,1025.68
2023-04-19T04:58:47.094Z,1025.68
2023-04-19T04:59:47.253Z,1025.67
2023-04-19T05:00:47.419Z,1025.63
2023-04-19T05:01:47.707Z,1025.61
2023-04-19T05:02:47.836Z,1025.63
2023-04-19T05:03:47.998Z,1025.61
2023-04-19T05:04:48.213Z,1025.59
2023-04-19T05:05:48.292Z,1025.59
2023-04-19T05:06:48.495Z,1025.60
2023-04-19T05:07:48.643Z,1025.58
2023-04-19T05:08:48.838Z,1025.60
2023-04-19T05:09:48.980Z,1025.61
2023-04-19T05:10:49.141Z,1025.58
2023-04-19T05:11:49.303Z,1025.60
2023-04-19T05:12:49.471Z,1025.61
2023-04-19T05:13:49.648Z,1025.61
2023-04-19T05:14:49.810Z,1025.55
2023-04-19T05:15:49.975Z,1025.51
2023-04-19T05:16:50.176Z,1025.55
2023-04-19T05:17:50.365Z,1025.59
2023-04-19T05:18:50.518Z,1025.60
2023-04-19T05:19:50.660Z,1025.62
2023-04-19T05:20:50.837Z,1025.61
2023-04-19T05:21:50.995Z,1025.59
2023-04-19T05:22:51.143Z,1025.61
2023-04-19T05:23:51.379Z,1025.63
2023-04-19T05:24:51.516Z,1025.63
2023-04-19T05:25:51.683Z,1025.59
2023-04-19T05:26:51.857Z,1025.58
2023-04-19T05:27:52.031Z,1025.57
2023-04-19T05:28:52.209Z,1025.58
2023-04-19T05:29:52.360Z,1025.57
2023-04-19T05:30:52.514Z,1025.57
2023-04-19T05:31:52.736Z,1025.57
2023-04-19T05:32:52.967Z,1025.58
2023-04-19T05:33:53.067Z,1025.59
2023-04-19T05:34:53.222Z,1025.52
2023-04-19T05:35:54.376Z,1025.46
2023-04-19T05:36:53.592Z,1025.44
2023-04-19T05:37:53.753Z,1025.46
2023-04-19T05:38:53.935Z,1025.41
2023-04-19T05:39:54.081Z,1025.42
2023-04-19T05:40:54.240Z,1025.39
2023-04-19T05:41:54.396Z,1025.36
2023-04-19T05:42:54.581Z,1025.40
2023-04-19T05:43:54.764Z,1025.34
2023-04-19T05:44:54.895Z,1025.34
2023-04-19T05:45:55.086Z,1025.34
2023-04-19T05:46:55.216Z,1025.31
2023-04-19T05:47:55.392Z,1025.30
2023-04-19T05:48:55.821Z,1025.30
2023-04-19T05:49:55.734Z,1025.27
2023-04-19T05:50:55.907Z,1025.28
2023-04-19T05:51:56.070Z,1025.25
2023-04-19T05:52:56.253Z,1025.32
2023-04-19T05:53:57.382Z,1025.28
2023-04-19T05:54:56.601Z,1025.28
2023-04-19T05:55:56.764Z,1025.28
2023-04-19T05:56:56.919Z,1025.30
2023-04-19T05:57:57.107Z,1025.28
2023-04-19T05:58:57.328Z,1025.28
2023-04-19T05:59:57.421Z,1025.28
2023-04-19T06:00:57.642Z,1025.26
2023-04-19T06:01:57.857Z,1025.29
2023-04-19T06:02:58.194Z,1025.25
2023-04-19T06:03:58.340Z,1025.25
2023-04-19T06:05:00.624Z,1025.25
2023-04-19T06:05:58.531Z,1025.28
2023-04-19T06:06:58.666Z,1025.28
2023-04-19T06:08:02.763Z,1025.26
2023-04-19T06:08:59.023Z,1025.26
2023-04-19T06:09:59.163Z,1025.33
2023-04-19T06:11:02.399Z,1025.30
2023-04-19T06:12:00.533Z,1025.33
2023-04-19T06:12:59.766Z,1025.26
2023-04-19T06:13:59.918Z,1025.23
2023-04-19T06:15:00.041Z,1025.25
2023-04-19T06:16:00.228Z,1025.27
2023-04-19T06:17:00.439Z,1025.24
2023-04-19T06:18:00.601Z,1025.20
2023-04-19T06:19:00.769Z,1025.23
2023-04-19T06:20:00.931Z,1025.24
2023-04-19T06:21:01.093Z,1025.22
2023-04-19T06:22:01.251Z,1025.18
2023-04-19T06:23:01.433Z,1025.20
2023-04-19T06:24:01.631Z,1025.24
2023-04-19T06:25:01.816Z,1025.24
2023-04-19T06:26:01.982Z,1025.23
2023-04-19T06:27:02.228Z,1025.28
2023-04-19T06:28:02.343Z,1025.24
2023-04-19T06:29:02.503Z,1025.23
2023-04-19T06:30:02.668Z,1025.17
2023-04-19T06:31:02.917Z,1025.17
2023-04-19T06:32:03.032Z,1025.19
2023-04-19T06:33:03.329Z,1025.13
2023-04-19T06:34:03.326Z,1025.14
2023-04-19T06:35:03.522Z,1025.12
2023-04-19T06:36:03.668Z,1025.13
2023-04-19T06:37:03.846Z,1025.01
2023-04-19T06:38:03.983Z,1025.06
2023-04-19T06:39:04.183Z,1025.10
2023-04-19T06:40:04.353Z,1025.06
2023-04-19T06:41:04.543Z,1025.08
2023-04-19T06:42:04.723Z,1025.03
2023-04-19T06:43:05.886Z,1025.04
2023-04-19T06:44:05.088Z,1025.08
2023-04-19T06:45:05.268Z,1025.04
2023-04-19T06:46:05.458Z,1025.02
2023-04-19T06:47:05.610Z,1024.99
2023-04-19T06:48:05.830Z,1025.02
2023-04-19T06:49:05.911Z,1025.01
2023-04-19T06:50:06.088Z,1024.99
2023-04-19T06:51:06.274Z,1024.98
2023-04-19T06:52:06.438Z,1024.98
2023-04-19T06:53:06.773Z,1025.01
2023-04-19T06:54:06.804Z,1025.02
2023-04-19T06:55:06.965Z,1025.01
2023-04-19T06:56:07.128Z,1025.01
2023-04-19T06:57:07.329Z,1024.99
2023-04-19T06:58:07.496Z,1024.97
2023-04-19T06:59:07.670Z,1024.96
2023-04-19T07:00:07.860Z,1024.93
2023-04-19T07:01:08.035Z,1024.96
2023-04-19T07:02:08.321Z,1024.89
2023-04-19T07:03:08.544Z,1024.92
2023-04-19T07:04:08.759Z,1024.83
2023-04-19T07:05:08.731Z,1024.83
2023-04-19T07:06:08.895Z,1024.85
2023-04-19T07:07:09.147Z,1024.87
2023-04-19T07:08:09.249Z,1024.83
2023-04-19T07:09:09.415Z,1024.88
2023-04-19T07:10:09.585Z,1024.81
2023-04-19T07:11:09.778Z,1024.83
2023-04-19T07:12:09.961Z,1024.80
2023-04-19T07:13:10.134Z,1024.80
2023-04-19T07:14:10.299Z,1024.82
2023-04-19T07:15:10.481Z,1024.70
2023-04-19T07:16:10.666Z,1024.67
2023-04-19T07:17:10.821Z,1024.67
2023-04-19T07:18:10.973Z,1024.68
2023-04-19T07:19:11.150Z,1024.67
2023-04-19T07:20:11.315Z,1024.62
2023-04-19T07:21:11.488Z,1024.58
2023-04-19T07:22:13.663Z,1024.57
2023-04-19T07:23:11.804Z,1024.63
2023-04-19T07:24:11.961Z,1024.58
2023-04-19T07:25:12.126Z,1024.56
2023-04-19T07:26:12.337Z,1024.56
2023-04-19T07:27:12.478Z,1024.57
2023-04-19T07:28:12.681Z,1024.54
2023-04-19T07:29:12.843Z,1024.58
2023-04-19T07:30:13.004Z,1024.53
2023-04-19T07:31:13.215Z,1024.53
2023-04-19T07:32:13.349Z,1024.54
2023-04-19T07:33:13.573Z,1024.58
2023-04-19T07:34:13.910Z,1024.49
2023-04-19T07:35:13.877Z,1024.47
2023-04-19T07:36:14.042Z,1024.50
2023-04-19T07:37:14.201Z,1024.42
2023-04-19T07:38:14.349Z,1024.50
2023-04-19T07:39:14.522Z,1024.49
2023-04-19T07:40:14.729Z,1024.46
2023-04-19T07:41:14.850Z,1024.43
2023-04-19T07:42:15.015Z,1024.47
2023-04-19T07:43:15.174Z,1024.46
2023-04-19T07:44:15.573Z,1024.43
2023-04-19T07:45:15.558Z,1024.45
2023-04-19T07:46:15.715Z,1024.39
2023-04-19T07:47:15.880Z,1024.41
2023-04-19T07:48:16.050Z,1024.35
2023-04-19T07:49:16.187Z,1024.34
2023-04-19T07:50:16.372Z,1024.40
2023-04-19T07:51:16.581Z,1024.40
2023-04-19T07:52:16.692Z,1024.35
2023-04-19T07:53:16.919Z,1024.37
2023-04-19T07:54:17.384Z,1024.35
2023-04-19T07:55:17.274Z,1024.32
2023-04-19T07:56:17.443Z,1024.38
2023-04-19T07:57:17.626Z,1024.44
2023-04-19T07:58:17.773Z,1024.28
2023-04-19T07:59:17.958Z,1024.29
2023-04-19T08:00:18.154Z,1024.22
2023-04-19T08:01:18.393Z,1024.21
2023-04-19T08:02:18.589Z,1024.27
2023-04-19T08:03:18.891Z,1024.23
2023-04-19T08:04:19.288Z,1024.16
2023-04-19T08:05:19.270Z,1024.08
2023-04-19T08:06:19.211Z,1024.15
2023-04-19T08:07:19.393Z,1024.16
2023-04-19T08:08:19.596Z,1024.13
2023-04-19T08:09:19.748Z,1024.07
2023-04-19T08:10:21.708Z,1024.09
2023-04-19T08:11:20.032Z,1024.11
2023-04-19T08:13:21.380Z,1024.02
2023-04-19T08:14:34.714Z,1024.10
2023-04-19T08:17:01.459Z,1024.05
2023-04-19T08:17:26.277Z,1024.08
2023-04-19T08:18:22.285Z,1024.06
2023-04-19T08:19:21.529Z,1024.08
2023-04-19T08:20:21.602Z,1024.08
2023-04-19T08:21:26.087Z,1023.99
2023-04-19T08:22:22.930Z,1024.08
2023-04-19T08:23:26.032Z,1024.10
2023-04-19T08:24:23.273Z,1024.03
2023-04-19T08:25:22.456Z,1024.02
2023-04-19T08:26:22.666Z,1024.01
2023-04-19T08:27:22.797Z,1023.98
2023-04-19T08:28:22.961Z,1024.05
2023-04-19T08:29:23.170Z,1023.98
2023-04-19T08:30:23.363Z,1023.96
2023-04-19T08:31:23.590Z,1024.00
2023-04-19T08:32:23.743Z,1023.89
2023-04-19T08:33:23.825Z,1023.92
2023-04-19T08:34:23.980Z,1023.92
2023-04-19T08:35:24.241Z,1023.87
2023-04-19T08:36:36.036Z,1023.84
2023-04-19T08:37:25.532Z,1023.80
2023-04-19T08:38:24.752Z,1023.83
2023-04-19T08:39:33.075Z,1023.79
2023-04-19T08:40:26.044Z,1023.78
2023-04-19T08:41:25.209Z,1023.79
2023-04-19T08:42:35.509Z,1023.85
2023-04-19T08:43:26.554Z,1023.78
2023-04-19T08:44:36.038Z,1023.82
2023-04-19T08:45:29.251Z,1023.78
2023-04-19T08:46:26.120Z,1023.70
2023-04-19T08:47:32.102Z,1023.79
2023-04-19T08:48:27.436Z,1023.70
2023-04-19T08:49:26.609Z,1023.85
2023-04-19T08:50:33.412Z,1023.74
2023-04-19T08:51:27.921Z,1023.71
2023-04-19T08:52:27.099Z,1023.74
2023-04-19T08:53:27.278Z,1023.66
2023-04-19T08:54:27.472Z,1023.73
2023-04-19T08:55:27.622Z,1023.76
2023-04-19T08:56:35.424Z,1023.73
2023-04-19T08:57:28.976Z,1023.76
2023-04-19T08:58:40.735Z,1023.80
2023-04-19T08:59:29.305Z,1023.81
2023-04-19T09:00:28.494Z,1023.71
2023-04-19T09:01:34.548Z,1023.78
2023-04-19T09:02:29.979Z,1023.68
2023-04-19T09:03:29.253Z,1023.65
2023-04-19T09:04:37.098Z,1023.65
2023-04-19T09:05:30.442Z,1023.68
2023-04-19T09:06:29.684Z,1023.67
2023-04-19T09:07:29.706Z,1023.70
2023-04-19T09:08:29.840Z,1023.65
2023-04-19T09:10:30.208Z,1023.54
2023-04-19T09:11:30.392Z,1023.61
2023-04-19T09:12:30.605Z,1023.57
2023-04-19T09:13:30.731Z,1023.57
2023-04-19T09:14:30.956Z,1023.53
2023-04-19T09:15:31.144Z,1023.55
2023-04-19T09:16:31.285Z,1023.58
2023-04-19T09:17:31.620Z,1023.49
2023-04-19T09:18:33.201Z,1023.46
2023-04-19T09:19:31.804Z,1023.44
2023-04-19T09:20:31.946Z,1023.34
2023-04-19T09:21:32.193Z,1023.33
2023-04-19T09:22:32.355Z,1023.35
2023-04-19T09:23:32.506Z,1023.37
2023-04-19T09:24:44.772Z,1023.36
2023-04-19T09:25:43.623Z,1023.20
2023-04-19T09:26:33.978Z,1023.21
2023-04-19T09:27:33.153Z,1023.20
2023-04-19T09:28:33.318Z,1023.18
2023-04-19T09:29:33.472Z,1023.12
2023-04-19T09:30:40.268Z,1023.07
2023-04-19T09:31:50.600Z,1023.06
2023-04-19T09:32:35.046Z,1023.07
2023-04-19T09:33:34.194Z,1023.05
2023-04-19T09:34:34.314Z,1022.99
2023-04-19T09:35:34.557Z,1023.01
2023-04-19T09:36:34.700Z,1023.03
2023-04-19T09:38:35.058Z,1022.96
2023-04-19T09:39:35.206Z,1023.01
2023-04-19T09:40:35.422Z,1023.01
2023-04-19T09:41:37.458Z,1022.92
2023-04-19T09:42:54.538Z,1022.87
2023-04-19T09:44:00.811Z,1022.90
2023-04-19T09:45:36.314Z,1022.87
2023-04-19T09:46:36.547Z,1022.81
2023-04-19T09:47:36.633Z,1022.82
2023-04-19T09:48:36.822Z,1022.80
2023-04-19T09:49:48.382Z,1022.84
2023-04-19T09:50:46.265Z,1022.85
2023-04-19T09:51:38.328Z,1022.82
2023-04-19T09:52:37.560Z,1022.76
2023-04-19T09:53:37.701Z,1022.70
2023-04-19T09:54:37.883Z,1022.68
2023-04-19T09:55:52.626Z,1022.79
2023-04-19T09:56:39.211Z,1022.79
2023-04-19T09:57:38.611Z,1022.77
2023-04-19T09:58:51.695Z,1022.79
2023-04-19T09:59:39.775Z,1022.83
2023-04-19T10:00:47.520Z,1022.88
2023-04-19T10:01:40.128Z,1022.80
2023-04-19T10:02:39.354Z,1022.79
2023-04-19T10:03:39.645Z,1022.68
2023-04-19T10:04:59.747Z,1022.77
2023-04-19T10:05:40.982Z,1022.69
2023-04-19T10:06:58.296Z,1022.73
2023-04-19T10:07:41.205Z,1022.70
2023-04-19T10:08:40.356Z,1022.64
2023-04-19T10:09:49.706Z,1022.80
2023-04-19T10:10:42.872Z,1022.68
2023-04-19T10:11:41.538Z,1022.57
2023-04-19T10:12:59.240Z,1022.61
2023-04-19T10:13:42.204Z,1022.66
2023-04-19T10:14:41.353Z,1022.54
2023-04-19T10:15:49.938Z,1022.52
2023-04-19T10:16:42.746Z,1022.48
2023-04-19T10:17:41.904Z,1022.50
2023-04-19T10:18:42.074Z,1022.51
2023-04-19T10:19:42.206Z,1022.54
2023-04-19T10:20:42.428Z,1022.38
2023-04-19T10:21:42.570Z,1022.44
2023-04-19T10:22:42.762Z,1022.39
2023-04-19T10:23:42.940Z,1022.39
2023-04-19T10:24:44.511Z,1022.41
2023-04-19T10:25:43.258Z,1022.38
2023-04-19T10:26:43.446Z,1022.35
2023-04-19T10:27:45.070Z,1022.34
2023-04-19T10:28:43.819Z,1022.34
2023-04-19T10:29:43.973Z,1022.35
2023-04-19T10:30:44.136Z,1022.34
2023-04-19T10:31:44.328Z,1022.43
2023-04-19T10:32:44.485Z,1022.34
2023-04-19T10:33:44.640Z,1022.28
2023-04-19T10:34:44.884Z,1022.22
2023-04-19T10:35:45.031Z,1022.22
2023-04-19T10:36:45.198Z,1022.16
2023-04-19T10:37:45.350Z,1022.11
2023-04-19T10:38:45.536Z,1022.12
2023-04-19T10:39:45.716Z,1022.19
2023-04-19T10:40:45.903Z,1022.17
2023-04-19T10:41:46.069Z,1022.19
2023-04-19T10:42:46.235Z,1022.15
2023-04-19T10:43:46.417Z,1022.12
2023-04-19T10:44:46.560Z,1022.11
2023-04-19T10:45:46.749Z,1022.06
2023-04-19T10:46:46.887Z,1022.08
2023-04-19T10:47:47.192Z,1022.11
2023-04-19T10:48:47.209Z,1022.09
2023-04-19T10:49:47.372Z,1022.09
2023-04-19T10:50:47.584Z,1022.10
2023-04-19T10:51:47.757Z,1022.14
2023-04-19T10:52:47.916Z,1022.06
2023-04-19T10:53:48.086Z,1022.05
2023-04-19T10:54:48.246Z,1022.04
2023-04-19T10:55:48.419Z,1022.00
2023-04-19T10:56:48.580Z,1022.05
2023-04-19T10:57:48.738Z,1022.02
2023-04-19T10:58:48.941Z,1022.03
2023-04-19T10:59:49.092Z,1022.00
2023-04-19T11:00:49.271Z,1021.98
2023-04-19T11:01:49.524Z,1022.00
2023-04-19T11:02:49.760Z,1022.07
2023-04-19T11:03:49.980Z,1022.05
2023-04-19T11:04:49.964Z,1022.07
2023-04-19T11:05:50.175Z,1022.09
2023-04-19T11:06:50.340Z,1022.12
2023-04-19T11:07:50.512Z,1022.03
2023-04-19T11:08:50.665Z,1021.96
2023-04-19T11:09:50.825Z,1021.95
2023-04-19T11:10:53.290Z,1021.84
2023-04-19T11:11:51.177Z,1021.89
2023-04-19T11:12:51.356Z,1021.87
2023-04-19T11:13:51.519Z,1021.90
2023-04-19T11:14:51.692Z,1021.93
2023-04-19T11:15:51.953Z,1021.88
2023-04-19T11:16:52.079Z,1021.86
2023-04-19T11:17:57.983Z,1021.82
2023-04-19T11:18:53.379Z,1021.80
2023-04-19T11:19:52.578Z,1021.83
2023-04-19T11:20:52.775Z,1021.80
2023-04-19T11:21:52.882Z,1021.84
2023-04-19T11:22:53.067Z,1021.83
2023-04-19T11:23:53.236Z,1021.80
2023-04-19T11:24:53.386Z,1021.77
2023-04-19T11:25:53.570Z,1021.81
2023-04-19T11:26:55.444Z,1021.79
2023-04-19T11:27:53.920Z,1021.80
2023-04-19T11:28:54.065Z,1021.79
2023-04-19T11:29:54.220Z,1021.79
2023-04-19T11:30:54.481Z,1021.84
2023-04-19T11:31:54.577Z,1021.79
2023-04-19T11:32:54.793Z,1021.75
2023-04-19T11:33:54.930Z,1021.75
2023-04-19T11:34:55.099Z,1021.70
2023-04-19T11:35:55.250Z,1021.69
2023-04-19T11:36:55.412Z,1021.76
2023-04-19T11:37:55.557Z,1021.64
2023-04-19T11:38:55.725Z,1021.66
2023-04-19T11:39:55.920Z,1021.74
2023-04-19T11:40:56.080Z,1021.68
2023-04-19T11:41:56.251Z,1021.63
2023-04-19T11:42:56.433Z,1021.71
2023-04-19T11:43:56.577Z,1021.67
2023-04-19T11:44:56.783Z,1021.72
2023-04-19T11:45:56.930Z,1021.71
2023-04-19T11:46:57.162Z,1021.67
2023-04-19T11:47:57.353Z,1021.66
2023-04-19T11:48:57.427Z,1021.73
2023-04-19T11:49:57.600Z,1021.72
2023-04-19T11:50:57.771Z,1021.74
2023-04-19T11:51:57.969Z,1021.72
2023-04-19T11:52:58.129Z,1021.70
2023-04-19T11:53:58.277Z,1021.73
2023-04-19T11:54:58.465Z,1021.62
2023-04-19T11:55:58.710Z,1021.66
2023-04-19T11:56:58.811Z,1021.74
2023-04-19T11:57:58.980Z,1021.65
2023-04-19T11:58:59.106Z,1021.64
2023-04-19T11:59:59.339Z,1021.58
2023-04-19T12:00:59.518Z,1021.63
2023-04-19T12:01:59.707Z,1021.57
2023-04-19T12:02:59.997Z,1021.59
2023-04-19T12:04:00.100Z,1021.61
2023-04-19T12:05:00.378Z,1021.67
2023-04-19T12:06:00.397Z,1021.66
2023-04-19T12:07:00.528Z,1021.61
2023-04-19T12:08:00.717Z,1021.65
2023-04-19T12:09:00.873Z,1021.54
2023-04-19T12:10:01.076Z,1021.67
2023-04-19T12:11:01.228Z,1021.69
2023-04-19T12:12:01.400Z,1021.59
2023-04-19T12:13:01.580Z,1021.58